createdAt,value
2017-11-09T00:00:15.016Z,18.42
2017-11-09T00:02:48.543Z,18.00
2017-11-09T00:05:22.007Z,17.58
2017-11-09T00:07:49.127Z,18.52
2017-11-09T00:10:15.495Z,17.98
2017-11-09T00:12:42.644Z,16.67
2017-11-09T00:15:09.780Z,18.95
2017-11-09T00:17:38.821Z,19.65
2017-11-09T00:20:05.208Z,19.55
2017-11-09T00:22:33.301Z,21.33
2017-11-09T00:24:59.680Z,20.30
2017-11-09T00:27:26.055Z,18.98
2017-11-09T00:29:53.196Z,17.83
2017-11-09T00:32:20.320Z,19.02
2017-11-09T00:34:46.692Z,19.83
2017-11-09T00:37:13.792Z,20.25
2017-11-09T00:39:40.197Z,18.33
2017-11-09T00:42:06.588Z,17.42
2017-11-09T00:44:32.952Z,17.08
2017-11-09T00:46:59.355Z,18.92
2017-11-09T00:49:26.478Z,18.45
2017-11-09T00:51:52.860Z,20.00
2017-11-09T00:54:19.984Z,19.12
2017-11-09T00:56:47.117Z,18.17
2017-11-09T00:59:13.504Z,19.15
2017-11-09T01:01:39.938Z,19.15
2017-11-09T01:04:06.340Z,18.08
2017-11-09T01:06:32.704Z,17.90
2017-11-09T01:08:59.116Z,18.80
2017-11-09T01:11:26.219Z,17.77
2017-11-09T01:13:52.656Z,17.62
2017-11-09T01:16:20.097Z,17.70
2017-11-09T01:18:46.473Z,19.10
2017-11-09T01:21:13.584Z,19.23
2017-11-09T01:23:40.037Z,16.70
2017-11-09T01:26:06.415Z,16.98
2017-11-09T01:28:33.520Z,18.50
2017-11-09T01:30:59.911Z,17.83
2017-11-09T01:33:26.287Z,17.87
2017-11-09T01:35:52.679Z,19.33
2017-11-09T01:38:19.088Z,16.08
2017-11-09T01:40:47.224Z,18.52
2017-11-09T01:43:13.616Z,18.42
2017-11-09T01:45:39.999Z,17.62
2017-11-09T01:48:06.456Z,18.27
2017-11-09T01:50:33.572Z,17.25
2017-11-09T01:53:00.169Z,17.87
2017-11-09T01:55:27.463Z,19.17
2017-11-09T01:57:54.604Z,18.23
2017-11-09T02:00:21.007Z,19.25
2017-11-09T02:02:47.404Z,18.50
2017-11-09T02:05:14.559Z,17.70
2017-11-09T02:07:42.817Z,16.90
2017-11-09T02:10:10.225Z,18.67
2017-11-09T02:12:36.615Z,19.65
2017-11-09T02:15:03.020Z,19.55
2017-11-09T02:17:29.388Z,18.15
2017-11-09T02:19:55.839Z,18.25
2017-11-09T02:22:22.281Z,19.42
2017-11-09T02:24:49.433Z,18.37
2017-11-09T02:27:16.567Z,18.48
2017-11-09T02:29:43.714Z,18.08
2017-11-09T02:32:10.867Z,16.70
2017-11-09T02:34:38.016Z,14.15
2017-11-09T02:37:05.186Z,13.98
2017-11-09T02:39:32.334Z,13.70
2017-11-09T02:41:59.476Z,15.55
2017-11-09T02:44:26.625Z,17.02
2017-11-09T02:46:53.783Z,17.05
2017-11-09T02:49:20.985Z,16.02
2017-11-09T02:51:47.391Z,15.95
2017-11-09T02:54:26.006Z,16.92
2017-11-09T02:56:52.414Z,17.67
2017-11-09T02:59:19.656Z,17.65
2017-11-09T03:01:46.094Z,15.07
2017-11-09T03:04:13.231Z,17.33
2017-11-09T03:06:39.654Z,18.20
2017-11-09T03:09:06.056Z,17.35
2017-11-09T03:11:32.436Z,17.65
2017-11-09T03:13:58.796Z,17.58
2017-11-09T03:16:25.924Z,15.93
2017-11-09T03:18:52.381Z,17.45
2017-11-09T03:21:19.532Z,17.27
2017-11-09T03:23:46.632Z,18.60
2017-11-09T03:26:12.989Z,17.20
2017-11-09T03:28:39.355Z,18.05
2017-11-09T03:31:06.602Z,18.85
2017-11-09T03:33:32.998Z,18.35
2017-11-09T03:35:59.401Z,19.45
2017-11-09T03:38:25.779Z,19.00
2017-11-09T03:40:52.185Z,17.35
2017-11-09T03:43:18.584Z,18.15
2017-11-09T03:45:45.010Z,18.35
2017-11-09T03:48:11.399Z,18.23
2017-11-09T03:50:37.817Z,16.52
2017-11-09T03:53:04.226Z,15.90
2017-11-09T03:55:30.600Z,16.92
2017-11-09T03:57:56.971Z,16.17
2017-11-09T04:00:23.361Z,18.62
2017-11-09T04:02:49.740Z,17.62
2017-11-09T04:05:16.119Z,17.50
2017-11-09T04:07:42.511Z,17.02
2017-11-09T04:10:08.915Z,16.62
2017-11-09T04:12:36.032Z,16.65
2017-11-09T04:15:03.395Z,13.60
2017-11-09T04:17:29.759Z,15.13
2017-11-09T04:19:56.888Z,15.95
2017-11-09T04:22:23.299Z,16.52
2017-11-09T04:24:49.690Z,16.52
2017-11-09T04:27:16.089Z,15.30
2017-11-09T04:29:42.631Z,16.25
2017-11-09T04:32:09.013Z,16.73
2017-11-09T04:34:35.389Z,14.52
2017-11-09T04:37:01.780Z,14.68
2017-11-09T04:39:28.147Z,15.15
2017-11-09T04:41:54.559Z,16.65
2017-11-09T04:44:20.978Z,16.42
2017-11-09T04:46:47.368Z,16.42
2017-11-09T04:49:14.484Z,14.60
2017-11-09T04:51:40.899Z,16.65
2017-11-09T04:54:07.302Z,14.60
2017-11-09T04:56:33.679Z,13.98
2017-11-09T04:59:00.062Z,17.55
2017-11-09T05:01:26.435Z,14.85
2017-11-09T05:03:52.784Z,17.70
2017-11-09T05:06:19.177Z,17.30
2017-11-09T05:08:45.563Z,19.42
2017-11-09T05:11:12.006Z,18.52
2017-11-09T05:13:38.372Z,16.90
2017-11-09T05:16:04.742Z,16.92
2017-11-09T05:18:31.144Z,15.85
2017-11-09T05:20:57.516Z,15.95
2017-11-09T05:23:23.916Z,17.45
2017-11-09T05:25:50.300Z,18.60
2017-11-09T05:28:16.678Z,17.98
2017-11-09T05:30:43.126Z,16.65
2017-11-09T05:33:09.671Z,21.65
2017-11-09T05:35:36.038Z,18.62
2017-11-09T05:38:03.157Z,18.55
2017-11-09T05:40:29.545Z,18.52
2017-11-09T05:42:56.697Z,21.48
2017-11-09T05:45:23.065Z,19.55
2017-11-09T05:47:49.717Z,49.45
2017-11-09T05:50:16.108Z,20.65
2017-11-09T05:52:42.501Z,19.50
2017-11-09T05:55:08.896Z,19.05
2017-11-09T05:57:36.054Z,21.60
2017-11-09T06:00:03.242Z,19.92
2017-11-09T06:02:29.643Z,20.40
2017-11-09T06:04:56.045Z,20.83
2017-11-09T06:07:22.500Z,21.33
2017-11-09T06:09:49.644Z,20.88
2017-11-09T06:12:16.778Z,32.42
2017-11-09T06:14:43.233Z,21.77
2017-11-09T06:17:10.344Z,22.58
2017-11-09T06:19:36.714Z,34.85
2017-11-09T06:22:03.816Z,20.98
2017-11-09T06:24:30.209Z,25.20
2017-11-09T06:26:57.319Z,21.10
2017-11-09T06:29:24.372Z,20.10
2017-11-09T06:31:50.747Z,21.05
2017-11-09T06:34:17.112Z,17.60
2017-11-09T06:36:43.483Z,19.05
2017-11-09T06:39:09.855Z,20.25
2017-11-09T06:41:36.240Z,23.10
2017-11-09T06:44:03.646Z,20.15
2017-11-09T06:46:30.021Z,19.65
2017-11-09T06:48:56.388Z,18.52
2017-11-09T06:51:23.484Z,20.05
2017-11-09T06:53:49.852Z,21.62
2017-11-09T06:56:16.963Z,18.08
2017-11-09T06:58:43.325Z,16.10
2017-11-09T07:01:09.698Z,16.90
2017-11-09T07:03:36.096Z,16.25
2017-11-09T07:06:03.211Z,17.55
2017-11-09T07:08:29.597Z,18.27
2017-11-09T07:10:56.692Z,15.38
2017-11-09T07:13:23.038Z,16.50
2017-11-09T07:15:50.466Z,16.10
2017-11-09T07:18:16.832Z,18.35
2017-11-09T07:20:43.253Z,16.48
2017-11-09T07:23:09.640Z,23.02
2017-11-09T07:25:36.744Z,18.80
2017-11-09T07:28:03.156Z,18.75
2017-11-09T07:30:29.580Z,17.67
2017-11-09T07:32:55.943Z,17.20
2017-11-09T07:35:22.336Z,18.12
2017-11-09T07:37:48.704Z,19.58
2017-11-09T07:40:15.052Z,16.12
2017-11-09T07:42:41.424Z,15.85
2017-11-09T07:45:08.538Z,16.65
2017-11-09T07:47:35.661Z,19.42
2017-11-09T07:50:02.049Z,16.30
2017-11-09T07:52:28.432Z,17.75
2017-11-09T07:54:54.799Z,17.73
2017-11-09T07:57:21.917Z,16.80
2017-11-09T07:59:48.288Z,14.65
2017-11-09T08:02:15.385Z,14.35
2017-11-09T08:04:41.747Z,13.52
2017-11-09T08:07:09.169Z,13.60
2017-11-09T08:09:35.524Z,13.98
2017-11-09T08:12:01.888Z,14.18
2017-11-09T08:14:28.992Z,13.15
2017-11-09T08:16:56.386Z,13.30
2017-11-09T08:19:22.756Z,13.82
2017-11-09T08:21:49.115Z,14.60
2017-11-09T08:24:21.454Z,15.77
2017-11-09T08:26:49.561Z,15.82
2017-11-09T08:29:23.285Z,13.93
2017-11-09T08:31:50.412Z,12.75
2017-11-09T08:34:16.794Z,12.48
2017-11-09T08:36:43.945Z,13.55
2017-11-09T08:39:11.043Z,13.10
2017-11-09T08:41:37.443Z,13.05
2017-11-09T08:44:04.574Z,12.27
2017-11-09T08:46:31.685Z,12.90
2017-11-09T08:48:58.124Z,13.73
2017-11-09T08:51:24.500Z,14.55
2017-11-09T08:53:51.604Z,13.70
2017-11-09T08:56:18.695Z,14.45
2017-11-09T08:58:45.825Z,14.30
2017-11-09T09:01:12.210Z,15.20
2017-11-09T09:03:38.599Z,13.88
2017-11-09T09:06:04.960Z,13.20
2017-11-09T09:08:31.321Z,14.20
2017-11-09T09:10:57.733Z,13.95
2017-11-09T09:13:24.154Z,16.92
2017-11-09T09:15:51.312Z,13.35
2017-11-09T09:18:17.731Z,12.85
2017-11-09T09:20:59.803Z,13.10
2017-11-09T09:23:26.206Z,12.63
2017-11-09T09:26:10.559Z,11.90
2017-11-09T09:28:40.819Z,11.35
2017-11-09T09:31:08.187Z,12.93
2017-11-09T09:33:36.888Z,10.90
2017-11-09T09:36:06.350Z,12.15
2017-11-09T09:38:41.192Z,11.02
2017-11-09T09:41:07.589Z,12.00
2017-11-09T09:43:33.992Z,10.13
2017-11-09T09:46:01.144Z,9.95
2017-11-09T09:48:28.276Z,10.77
2017-11-09T09:50:54.672Z,10.02
2017-11-09T09:53:21.032Z,8.68
2017-11-09T09:55:47.417Z,9.02
2017-11-09T09:58:13.791Z,9.88
2017-11-09T10:00:40.216Z,7.95
2017-11-09T10:03:06.600Z,8.90
2017-11-09T10:05:32.982Z,8.80
2017-11-09T10:07:59.360Z,10.65
2017-11-09T10:10:26.500Z,7.35
2017-11-09T10:12:53.660Z,8.98
2017-11-09T10:15:20.779Z,9.48
2017-11-09T10:17:47.156Z,10.73
2017-11-09T10:20:13.547Z,10.30
2017-11-09T10:22:39.920Z,9.73
2017-11-09T10:25:06.305Z,11.43
2017-11-09T10:27:33.709Z,11.93
2017-11-09T10:30:00.076Z,11.82
2017-11-09T10:32:26.472Z,12.85
2017-11-09T10:34:52.856Z,12.85
2017-11-09T10:37:19.263Z,12.00
2017-11-09T10:39:45.647Z,12.10
2017-11-09T10:42:12.796Z,12.48
2017-11-09T10:44:39.950Z,13.73
2017-11-09T10:47:07.101Z,12.05
2017-11-09T10:49:34.239Z,11.15
2017-11-09T10:52:01.373Z,10.65
2017-11-09T10:54:27.765Z,11.85
2017-11-09T10:56:54.215Z,10.82
2017-11-09T10:59:20.611Z,11.18
2017-11-09T11:01:47.766Z,10.40
2017-11-09T11:04:14.905Z,8.27
2017-11-09T11:06:43.037Z,10.88
2017-11-09T11:09:09.453Z,10.27
2017-11-09T11:11:35.817Z,10.30
2017-11-09T11:14:02.196Z,8.90
2017-11-09T11:16:29.583Z,7.68
2017-11-09T11:18:55.953Z,9.40
2017-11-09T11:21:23.957Z,7.60
2017-11-09T11:23:50.332Z,7.85
2017-11-09T11:26:16.706Z,7.00
2017-11-09T11:28:43.812Z,8.05
2017-11-09T11:31:10.239Z,9.63
2017-11-09T11:33:36.660Z,10.52
2017-11-09T11:36:03.044Z,7.85
2017-11-09T11:38:29.408Z,6.40
2017-11-09T11:40:55.789Z,6.93
2017-11-09T11:43:22.157Z,7.30
2017-11-09T11:45:48.545Z,7.00
2017-11-09T11:48:14.917Z,6.68
2017-11-09T11:50:42.038Z,7.82
2017-11-09T11:53:08.420Z,7.87
2017-11-09T11:55:35.542Z,8.80
2017-11-09T11:58:01.908Z,9.73
2017-11-09T12:00:28.344Z,9.82
2017-11-09T12:02:54.752Z,10.68
2017-11-09T12:05:21.868Z,8.50
2017-11-09T12:07:48.246Z,9.80
2017-11-09T12:10:14.620Z,13.70
2017-11-09T12:12:41.002Z,12.32
2017-11-09T12:15:08.104Z,11.65
2017-11-09T12:17:34.458Z,10.65
2017-11-09T12:20:00.816Z,12.63
2017-11-09T12:22:27.928Z,11.27
2017-11-09T12:24:54.288Z,11.20
2017-11-09T12:27:21.417Z,11.12
2017-11-09T12:29:47.778Z,13.85
2017-11-09T12:32:14.904Z,11.80
2017-11-09T12:34:41.269Z,12.57
2017-11-09T12:37:08.384Z,12.55
2017-11-09T12:39:34.747Z,12.88
2017-11-09T12:42:01.895Z,12.13
2017-11-09T12:44:29.032Z,12.52
2017-11-09T12:46:55.439Z,12.88
2017-11-09T12:49:21.800Z,13.38
2017-11-09T12:51:48.227Z,14.23
2017-11-09T12:54:14.641Z,13.27
2017-11-09T12:56:41.040Z,12.40
2017-11-09T12:59:07.475Z,12.15
2017-11-09T13:01:33.892Z,12.10
2017-11-09T13:04:00.261Z,11.77
2017-11-09T13:06:26.656Z,12.57
2017-11-09T13:08:53.792Z,12.70
2017-11-09T13:11:20.919Z,12.77
2017-11-09T13:13:47.325Z,12.68
2017-11-09T13:16:13.736Z,11.68
2017-11-09T13:18:40.872Z,12.82
2017-11-09T13:21:07.998Z,12.65
2017-11-09T13:23:34.370Z,12.48
2017-11-09T13:26:03.553Z,11.52
2017-11-09T13:28:30.669Z,11.48
2017-11-09T13:30:57.080Z,13.43
2017-11-09T13:33:23.499Z,12.07
2017-11-09T13:35:49.863Z,12.52
2017-11-09T13:38:16.235Z,13.07
2017-11-09T13:40:43.383Z,12.15
2017-11-09T13:43:09.780Z,12.77
2017-11-09T13:45:36.172Z,13.07
2017-11-09T13:48:02.535Z,12.15
2017-11-09T13:50:28.899Z,12.23
2017-11-09T13:52:55.268Z,12.73
2017-11-09T13:55:21.676Z,12.40
2017-11-09T13:57:48.802Z,13.65
2017-11-09T14:00:15.188Z,13.18
2017-11-09T14:02:41.555Z,11.43
2017-11-09T14:05:08.940Z,12.85
2017-11-09T14:07:36.048Z,12.60
2017-11-09T14:10:02.428Z,13.40
2017-11-09T14:12:29.536Z,12.37
2017-11-09T14:14:55.930Z,12.65
2017-11-09T14:17:22.292Z,13.00
2017-11-09T14:19:48.663Z,13.20
2017-11-09T14:22:15.020Z,14.82
2017-11-09T14:24:42.127Z,13.57
2017-11-09T14:27:08.520Z,13.50
2017-11-09T14:29:34.900Z,14.32
2017-11-09T14:32:01.267Z,13.52
2017-11-09T14:34:28.404Z,15.07
2017-11-09T14:36:55.524Z,15.30
2017-11-09T14:39:21.907Z,13.70
2017-11-09T14:41:48.277Z,15.18
2017-11-09T14:44:14.661Z,14.55
2017-11-09T14:46:44.624Z,14.55
2017-11-09T14:49:11.004Z,13.62
2017-11-09T14:51:38.120Z,17.87
2017-11-09T14:54:04.491Z,17.12
2017-11-09T14:56:31.648Z,16.12
2017-11-09T14:58:58.792Z,16.45
2017-11-09T15:01:25.895Z,14.82
2017-11-09T15:03:52.293Z,15.07
2017-11-09T15:06:19.441Z,13.20
2017-11-09T15:08:46.292Z,15.50
2017-11-09T15:11:13.692Z,14.65
2017-11-09T15:13:40.050Z,14.90
2017-11-09T15:16:08.175Z,15.00
2017-11-09T15:18:34.545Z,13.52
2017-11-09T15:21:00.912Z,14.00
2017-11-09T15:23:27.315Z,13.55
2017-11-09T15:25:53.700Z,14.15
2017-11-09T15:28:20.121Z,13.98
2017-11-09T15:30:46.536Z,13.48
2017-11-09T15:33:13.655Z,14.90
2017-11-09T15:35:51.969Z,15.65
2017-11-09T15:38:18.400Z,13.62
2017-11-09T15:40:44.781Z,12.75
2017-11-09T15:43:11.145Z,14.15
2017-11-09T15:45:37.512Z,14.32
2017-11-09T15:48:03.876Z,12.98
2017-11-09T15:50:30.241Z,11.55
2017-11-09T15:52:56.604Z,12.73
2017-11-09T15:55:22.997Z,14.75
2017-11-09T15:57:49.379Z,12.82
2017-11-09T16:00:16.515Z,12.40
2017-11-09T16:02:42.948Z,12.20
2017-11-09T16:05:09.344Z,12.27
2017-11-09T16:07:38.529Z,12.95
2017-11-09T16:10:04.908Z,14.07
2017-11-09T16:12:31.284Z,14.13
2017-11-09T16:14:57.658Z,15.27
2017-11-09T16:17:24.031Z,12.52
2017-11-09T16:19:52.147Z,13.57
2017-11-09T16:22:18.517Z,12.23
2017-11-09T16:24:44.881Z,11.30
2017-11-09T16:27:12.053Z,12.45
2017-11-09T16:29:38.460Z,12.30
2017-11-09T16:32:05.569Z,13.23
2017-11-09T16:34:31.928Z,11.25
2017-11-09T16:36:58.297Z,11.95
2017-11-09T16:39:24.660Z,11.80
2017-11-09T16:41:51.059Z,19.50
2017-11-09T16:44:17.650Z,14.65
2017-11-09T16:46:44.009Z,12.27
2017-11-09T16:49:11.108Z,12.75
2017-11-09T16:51:37.498Z,13.15
2017-11-09T16:54:04.594Z,12.35
2017-11-09T16:56:31.002Z,12.10
2017-11-09T16:58:57.416Z,13.50
2017-11-09T17:01:23.788Z,12.80
2017-11-09T17:03:50.151Z,12.65
2017-11-09T17:06:16.520Z,12.63
2017-11-09T17:08:42.949Z,12.35
2017-11-09T17:11:09.339Z,13.65
2017-11-09T17:13:35.738Z,12.98
2017-11-09T17:16:02.180Z,12.15
2017-11-09T17:18:33.669Z,12.05
2017-11-09T17:21:00.790Z,12.10
2017-11-09T17:23:27.152Z,12.13
2017-11-09T17:25:53.548Z,12.60
2017-11-09T17:28:19.932Z,13.18
2017-11-09T17:30:48.075Z,12.15
2017-11-09T17:33:14.439Z,13.13
2017-11-09T17:35:41.546Z,12.35
2017-11-09T17:38:07.900Z,12.77
2017-11-09T17:40:34.271Z,13.32
2017-11-09T17:43:00.644Z,14.13
2017-11-09T17:45:27.011Z,12.73
2017-11-09T17:47:53.380Z,12.75
2017-11-09T17:50:19.738Z,12.98
2017-11-09T17:52:49.138Z,13.75
2017-11-09T17:55:15.504Z,13.90
2017-11-09T17:57:41.923Z,13.00
2017-11-09T18:00:14.526Z,13.00
2017-11-09T18:02:41.681Z,12.10
2017-11-09T18:05:08.801Z,14.20
2017-11-09T18:07:35.193Z,20.65
2017-11-09T18:10:01.589Z,19.20
2017-11-09T18:12:28.713Z,24.12
2017-11-09T18:14:55.080Z,24.33
2017-11-09T18:17:23.209Z,24.45
2017-11-09T18:19:49.597Z,29.87
2017-11-09T18:22:18.655Z,20.60
2017-11-09T18:24:45.036Z,20.02
2017-11-09T18:27:11.428Z,20.60
2017-11-09T18:29:37.844Z,21.27
2017-11-09T18:32:04.252Z,14.82
2017-11-09T18:34:30.627Z,25.10
2017-11-09T18:36:57.023Z,32.38
2017-11-09T18:39:23.412Z,27.87
2017-11-09T18:41:50.516Z,29.27
2017-11-09T18:44:16.871Z,21.02
2017-11-09T18:46:43.333Z,28.83
2017-11-09T18:49:10.453Z,21.75
2017-11-09T18:51:36.836Z,21.75
2017-11-09T18:54:03.215Z,44.30
2017-11-09T18:56:29.598Z,45.58
2017-11-09T18:59:02.119Z,22.30
2017-11-09T19:01:28.483Z,24.35
2017-11-09T19:03:56.602Z,18.10
2017-11-09T19:06:22.989Z,13.90
2017-11-09T19:08:50.091Z,25.80
2017-11-09T19:11:17.548Z,23.17
2017-11-09T19:13:43.923Z,15.65
2017-11-09T19:16:10.284Z,10.40
2017-11-09T19:18:36.651Z,11.98
2017-11-09T19:21:03.040Z,9.30
2017-11-09T19:23:30.197Z,11.15
2017-11-09T19:25:56.564Z,10.70
2017-11-09T19:28:23.689Z,10.68
2017-11-09T19:30:50.051Z,9.90
2017-11-09T19:33:17.176Z,9.73
2017-11-09T19:35:43.628Z,10.43
2017-11-09T19:38:10.017Z,10.55
2017-11-09T19:40:36.367Z,11.88
2017-11-09T19:43:02.743Z,11.00
2017-11-09T19:48:32.272Z,10.15
2017-11-09T19:50:58.686Z,11.27
2017-11-09T19:53:25.048Z,11.85
2017-11-09T19:55:51.426Z,11.70
2017-11-09T19:58:18.536Z,11.35
2017-11-09T20:00:44.912Z,10.75
2017-11-09T20:03:11.281Z,11.00
2017-11-09T20:05:37.655Z,10.52
2017-11-09T20:08:04.756Z,11.18
2017-11-09T20:10:31.115Z,11.05
2017-11-09T20:12:58.696Z,10.70
2017-11-09T20:15:26.283Z,11.40
2017-11-09T20:17:52.643Z,11.00
2017-11-09T20:20:19.016Z,13.98
2017-11-09T20:22:46.119Z,12.60
2017-11-09T20:25:12.481Z,12.27
2017-11-09T20:27:38.855Z,11.02
2017-11-09T20:30:05.214Z,13.02
2017-11-09T20:32:31.589Z,11.98
2017-11-09T20:34:58.735Z,12.50
2017-11-09T20:37:25.124Z,12.65
2017-11-09T20:39:52.100Z,14.82
2017-11-09T20:42:18.927Z,13.80
2017-11-09T20:44:45.356Z,13.02
2017-11-09T20:47:11.728Z,12.35
2017-11-09T20:49:39.868Z,12.63
2017-11-09T20:52:07.189Z,12.52
2017-11-09T20:54:33.564Z,12.20
2017-11-09T20:56:59.932Z,13.45
2017-11-09T20:59:26.301Z,12.37
2017-11-09T21:01:52.672Z,13.13
2017-11-09T21:04:19.784Z,15.10
2017-11-09T21:06:46.144Z,13.27
2017-11-09T21:09:14.708Z,13.32
2017-11-09T21:11:41.154Z,14.13
2017-11-09T21:14:07.518Z,13.25
2017-11-09T21:16:33.879Z,15.70
2017-11-09T21:19:00.235Z,15.50
2017-11-09T21:21:26.590Z,15.90
2017-11-09T21:23:53.699Z,14.30
2017-11-09T21:26:20.062Z,15.80
2017-11-09T21:28:46.482Z,15.57
2017-11-09T21:31:12.831Z,16.52
2017-11-09T21:33:39.965Z,15.82
2017-11-09T21:36:06.344Z,17.83
2017-11-09T21:38:32.727Z,16.02
2017-11-09T21:40:59.092Z,16.77
2017-11-09T21:43:25.483Z,16.95
2017-11-09T21:45:51.858Z,14.82
2017-11-09T21:48:18.240Z,15.18
2017-11-09T21:50:44.655Z,13.60
2017-11-09T21:53:11.027Z,15.32
2017-11-09T21:55:38.138Z,16.58
2017-11-09T21:58:05.511Z,15.93
2017-11-09T22:00:32.900Z,14.65
2017-11-09T22:03:00.052Z,16.42
2017-11-09T22:05:26.464Z,16.42
2017-11-09T22:07:53.568Z,16.90
2017-11-09T22:10:19.927Z,15.52
2017-11-09T22:12:46.284Z,15.30
2017-11-09T22:15:13.399Z,16.48
2017-11-09T22:17:39.760Z,15.30
2017-11-09T22:20:06.887Z,14.90
2017-11-09T22:22:33.263Z,16.12
2017-11-09T22:24:59.618Z,14.57
2017-11-09T22:27:25.979Z,17.33
2017-11-09T22:29:52.361Z,17.02
2017-11-09T22:32:18.966Z,16.62
2017-11-09T22:34:46.076Z,15.43
2017-11-09T22:37:12.439Z,15.60
2017-11-09T22:39:39.542Z,16.23
2017-11-09T22:42:05.902Z,15.13
2017-11-09T22:44:32.299Z,14.60
2017-11-09T22:46:58.666Z,15.15
2017-11-09T22:49:25.041Z,15.50
2017-11-09T22:51:51.425Z,15.73
2017-11-09T22:54:17.850Z,15.15
2017-11-09T22:56:44.236Z,14.25
2017-11-09T22:59:10.600Z,14.02
2017-11-09T23:01:36.971Z,14.95
2017-11-09T23:04:03.346Z,15.25
2017-11-09T23:06:29.699Z,14.80
2017-11-09T23:08:56.063Z,14.63
2017-11-09T23:11:23.483Z,15.70
2017-11-09T23:13:49.865Z,15.00
2017-11-09T23:16:16.981Z,15.48
2017-11-09T23:18:43.394Z,15.75
2017-11-09T23:21:09.790Z,14.10
2017-11-09T23:23:36.151Z,14.35
2017-11-09T23:26:02.541Z,14.85
2017-11-09T23:28:29.649Z,16.12
2017-11-09T23:30:56.003Z,14.90
2017-11-09T23:33:22.371Z,15.75
2017-11-09T23:35:49.785Z,14.98
2017-11-09T23:38:16.164Z,15.90
2017-11-09T23:40:42.537Z,15.75
2017-11-09T23:43:08.912Z,16.17
2017-11-09T23:45:35.266Z,14.50
2017-11-09T23:48:01.649Z,14.10
2017-11-09T23:50:28.755Z,16.08
2017-11-09T23:52:55.127Z,14.40
2017-11-09T23:55:22.248Z,14.32
2017-11-09T23:57:48.644Z,15.48
